Flight Track Log - Related Links

Times and Time Zones

All times are in EDT time to prevent confusion due to time zone crossing. See the SKW5550 flight status page for this flight to view local times or setup timezone preferences in your user account.

Time Position Orientation Groundspeed Altitude Reporting Facility
EDT Latitude Longitude Course Direction KTS MPH feet Rate Location/Type
Tue 09:47:56 AM 44.5372 -108.9958 144° Southeast 156 180 6,300  Level Salt Lake Center
Tue 09:48:58 AM 44.5414 -108.9294 85° East 191 220 8,100 1,854 Climbing Salt Lake Center
Tue 09:49:00 AM 44.0232 -108.5197 157° South  Level Estimated
Tue 09:49:59 AM 44.4864 -108.8900 153° Southeast 220 253 10,100  Level Salt Lake Center
Tue 09:50:00 AM 43.9401 -108.4365 156° South  Level Estimated
Tue 09:51:00 AM 43.8570 -108.3536 142° Southeast  Level Estimated
Tue 09:51:00 AM 44.4214 -108.8514 157° South 235 270 12,200  Level Salt Lake Center
Tue 09:52:00 AM 43.7599 -108.3087 162° South  Level FlightAware Approximate
Tue 09:52:01 AM 44.3483 -108.8072 157° South 260 299 14,100  Level Salt Lake Center
Tue 09:53:00 AM 43.6771 -108.2254 144° Southeast  Level Estimated
Tue 09:53:03 AM 44.2678 -108.7608 158° South 297 342 15,900  Level Salt Lake Center
Tue 09:54:04 AM 44.1850 -108.7147 158° South 314 361 17,300 1,770 Climbing Salt Lake Center
Tue 09:55:05 AM 44.0825 -108.6544 157° South 329 379 19,500 1,805 Climbing Salt Lake Center
Tue 09:56:07 AM 43.9947 -108.6039 157° South 339 390 21,000 1,366 Climbing Salt Lake Center
Tue 09:57:08 AM 43.9061 -108.5525 157° South 343 395 22,300 1,122 Climbing Salt Lake Center
Tue 09:58:10 AM 43.8136 -108.5014 158° South 353 406 23,300 878 Climbing Salt Lake Center
Tue 09:59:11 AM 43.7186 -108.4478 158° South 364 419 24,100 885 Climbing Salt Lake Center
Tue 10:00:12 AM 43.6228 -108.4836 195° South 363 418 25,100 732 Climbing Salt Lake Center
Tue 10:01:14 AM 43.5292 -108.5294 200° South 358 412 25,600 537 Climbing Salt Lake Center
Tue 10:02:15 AM 43.4303 -108.5747 198° South 371 427 26,200 537 Climbing Salt Lake Center
Tue 10:03:17 AM 43.3075 -108.5472 171° South 411 473 26,700 537 Climbing Salt Lake Center
Tue 10:04:18 AM 43.2214 -108.4342 136° Southeast 427 491 27,300 639 Climbing Salt Lake Center
Tue 10:05:19 AM 43.1347 -108.3228 137° Southeast 429 494 28,000 976 Climbing Salt Lake Center
Tue 10:06:21 AM 43.0506 -108.2153 137° Southeast 420 483 29,300 927 Climbing Salt Lake Center
Tue 10:07:22 AM 42.9697 -108.1103 136° Southeast 407 468 29,900 585 Climbing Salt Lake Center
Tue 10:08:24 AM 42.8836 -108.0017 137° Southeast 407 468 30,500 537 Climbing Salt Lake Center
Tue 10:09:25 AM 42.7900 -107.8828 137° Southeast 411 473 31,000 244 Climbing Salt Lake Center
Tue 10:10:27 AM 42.7094 -107.7806 137° Southeast 412 474 31,000  Level Salt Lake Center
Tue 10:11:28 AM 42.6306 -107.6811 137° Southeast 406 467 31,000  Level Salt Lake Center
Tue 10:12:30 AM 42.5364 -107.5636 137° Southeast 410 472 31,000  Level Salt Lake Center
Tue 10:13:31 AM 42.4536 -107.4597 137° Southeast 420 483 31,000  Level Salt Lake Center
Tue 10:14:33 AM 42.3544 -107.3364 137° Southeast 430 495 31,000  Level Salt Lake Center
Tue 10:15:34 AM 42.2678 -107.2297 138° Southeast 437 503 31,000  Level Salt Lake Center
Tue 10:16:36 AM 42.1764 -107.1264 140° Southeast 445 512 31,000  Level Salt Lake Center
Tue 10:17:37 AM 42.0725 -107.0106 140° Southeast 437 503 31,000  Level Salt Lake Center
Tue 10:18:39 AM 41.9806 -106.9106 141° Southeast 440 506 31,000  Level Salt Lake Center
Tue 10:19:40 AM 41.8775 -106.7975 141° Southeast 430 495 31,000  Level Salt Lake Center
Tue 10:20:42 AM 41.7911 -106.7028 141° Southeast 422 486 31,000  Level Salt Lake Center
Tue 10:21:44 AM 41.6961 -106.6006 141° Southeast 422 486 31,000  Level Salt Lake Center
Tue 10:22:45 AM 41.6108 -106.5081 141° Southeast 416 479 31,000  Level Salt Lake Center
Tue 10:23:47 AM 41.5194 -106.4100 141° Southeast 407 468 31,000  Level Salt Lake Center
Tue 10:25:12 AM 41.3806 -106.2611 141° Southeast 424 488 31,000  Level Denver Center
Tue 10:26:13 AM 41.2911 -106.1647 141° Southeast 431 496 31,000  Level Denver Center
Tue 10:27:15 AM 41.1881 -106.0556 141° Southeast 426 490 31,000 -726 Level Denver Center
Tue 10:28:17 AM 41.0986 -105.9614 142° Southeast 429 494 29,500 -1,403 Descending Denver Center
Tue 10:29:19 AM 41.0142 -105.8703 141° Southeast 423 487 28,100 -1,452 Descending Denver Center
Tue 10:30:21 AM 40.9114 -105.7628 142° Southeast 397 457 26,500 -1,548 Descending Denver Center
Tue 10:31:23 AM 40.8244 -105.6714 141° Southeast 399 459 24,900 -1,645 Descending Denver Center
Tue 10:32:25 AM 40.7417 -105.5853 142° Southeast 386 444 23,100 -1,536 Descending Denver Center
Tue 10:33:28 AM 40.6642 -105.5061 142° Southeast 357 411 21,700 -1,344 Descending Denver Center
Tue 10:34:30 AM 40.5914 -105.4183 138° Southeast 356 410 20,300 -1,719 Descending Denver Center
Tue 10:36:19 AM 40.4833 -105.2333 127° Southeast 324 373 16,800 -1,877 Descending Denver TRACON
Tue 10:37:13 AM 40.4667 -105.1333 102° East 319 367 15,200 -1,158 Descending Denver TRACON
Tue 10:38:13 AM 40.4333 -105.0167 111° Southeast 306 352 14,600 -400 Descending Denver TRACON
Tue 10:39:13 AM 40.4000 -104.9167 114° Southeast 279 321 14,400 -450 Descending Denver TRACON
Tue 10:40:13 AM 40.3667 -104.8333 118° Southeast 270 311 13,700 -950 Descending Denver TRACON
Tue 10:41:13 AM 40.3333 -104.7667 123° Southeast 261 300 12,500 -1,121 Descending Denver TRACON
Tue 10:41:44 AM 40.3103 -104.7306 130° Southeast 267 307 12,000 -1,290 Descending Denver Center
Tue 10:42:46 AM 40.2297 -104.7025 165° South 257 296 10,500 -1,210 Descending Denver Center
Tue 10:43:48 AM 40.1642 -104.6875 170° South 248 285 9,500 -919 Descending Denver Center
Tue 10:44:50 AM 40.0997 -104.6797 175° South 240 276 8,600 -774 Descending Denver Center
Tue 10:45:52 AM 40.0389 -104.6836 183° South 229 264 7,900 -774 Descending Denver Center
Tue 10:46:54 AM 39.9833 -104.6856 182° South 214 246 7,000 -823 Descending Denver Center
Tue 10:47:56 AM 39.9347 -104.6853 180° South 192 221 6,200 -774 Descending Denver Center
Tue 10:48:58 AM 39.8881 -104.6867 181° South 155 178 5,400 -774 Descending Denver Center

Login

Don't have an account? Register now (free) for customized features, flight alerts, and more!